createdAt,value
2018-05-26T00:00:26.883Z,20.97
2018-05-26T00:02:26.352Z,20.94
2018-05-26T00:03:25.862Z,20.93
2018-05-26T00:05:20.995Z,21.00
2018-05-26T00:06:20.977Z,21.00
2018-05-26T00:08:16.946Z,20.96
2018-05-26T00:09:16.948Z,21.00
2018-05-26T00:11:13.438Z,20.94
2018-05-26T00:12:12.868Z,20.85
2018-05-26T00:14:07.841Z,20.93
2018-05-26T00:15:06.323Z,20.81
2018-05-26T00:17:02.316Z,20.79
2018-05-26T00:18:02.304Z,20.72
2018-05-26T00:19:58.744Z,20.71
2018-05-26T00:20:58.242Z,20.71
2018-05-26T00:22:54.720Z,20.72
2018-05-26T00:23:54.195Z,20.64
2018-05-26T00:25:48.637Z,20.66
2018-05-26T00:26:48.643Z,20.64
2018-05-26T00:28:44.601Z,20.60
2018-05-26T00:29:44.589Z,20.56
2018-05-26T00:31:40.059Z,20.53
2018-05-26T00:32:39.555Z,20.53
2018-05-26T00:34:34.978Z,20.60
2018-05-26T00:35:34.972Z,20.53
2018-05-26T00:37:31.437Z,20.57
2018-05-26T00:38:30.921Z,20.53
2018-05-26T00:40:26.902Z,20.49
2018-05-26T00:41:26.891Z,20.53
2018-05-26T00:43:23.357Z,20.44
2018-05-26T00:44:22.849Z,20.44
2018-05-26T00:46:18.835Z,20.42
2018-05-26T00:47:18.794Z,20.38
2018-05-26T00:49:14.777Z,20.32
2018-05-26T00:50:15.758Z,20.32
2018-05-26T00:52:12.241Z,20.37
2018-05-26T00:53:10.736Z,20.37
2018-05-26T00:55:07.182Z,20.44
2018-05-26T00:56:06.675Z,20.37
2018-05-26T00:58:02.650Z,20.32
2018-05-26T00:59:02.654Z,20.26
2018-05-26T01:00:58.640Z,20.18
2018-05-26T01:01:57.085Z,20.20
2018-05-26T01:03:53.036Z,20.20
2018-05-26T01:04:53.556Z,20.16
2018-05-26T01:06:47.525Z,20.11
2018-05-26T01:07:47.505Z,20.12
2018-05-26T01:09:43.461Z,20.22
2018-05-26T01:10:43.960Z,20.12
2018-05-26T01:12:40.929Z,20.11
2018-05-26T01:13:39.916Z,20.22
2018-05-26T01:15:38.376Z,20.12
2018-05-26T01:16:38.380Z,20.11
2018-05-26T01:18:35.023Z,20.18
2018-05-26T01:19:33.528Z,20.15
2018-05-26T01:21:29.442Z,20.10
2018-05-26T01:22:29.447Z,20.08
2018-05-26T01:24:25.370Z,20.10
2018-05-26T01:25:25.903Z,20.05
2018-05-26T01:27:22.351Z,20.08
2018-05-26T01:28:21.349Z,20.08
2018-05-26T01:30:17.313Z,20.08
2018-05-26T01:31:17.325Z,20.08
2018-05-26T01:33:13.264Z,19.98
2018-05-26T01:34:13.295Z,20.05
2018-05-26T01:36:09.255Z,19.98
2018-05-26T01:37:09.242Z,19.95
2018-05-26T01:39:08.209Z,19.97
2018-05-26T01:40:07.354Z,19.93
2018-05-26T01:42:05.359Z,19.98
2018-05-26T01:43:05.317Z,19.97
2018-05-26T01:45:03.307Z,19.98
2018-05-26T01:46:04.277Z,19.93
2018-05-26T01:47:59.753Z,19.85
2018-05-26T01:48:59.246Z,19.79
2018-05-26T01:50:55.154Z,19.78
2018-05-26T01:51:55.165Z,19.83
2018-05-26T01:53:51.616Z,19.72
2018-05-26T01:54:51.626Z,19.71
2018-05-26T01:56:47.588Z,19.71
2018-05-26T01:57:47.569Z,19.63
2018-05-26T01:59:42.021Z,19.75
2018-05-26T02:00:41.505Z,19.80
2018-05-26T02:02:37.468Z,19.70
2018-05-26T02:03:37.463Z,19.60
2018-05-26T02:05:33.444Z,19.70
2018-05-26T02:06:33.409Z,19.67
2018-05-26T02:08:29.399Z,19.68
2018-05-26T02:09:29.378Z,19.65
2018-05-26T02:11:25.290Z,19.63
2018-05-26T02:12:25.828Z,19.57
2018-05-26T02:14:21.763Z,19.47
2018-05-26T02:15:21.242Z,19.53
2018-05-26T02:17:17.695Z,19.40
2018-05-26T02:18:17.204Z,19.40
2018-05-26T02:20:11.152Z,19.46
2018-05-26T02:21:10.660Z,19.50
2018-05-26T02:23:07.605Z,19.50
2018-05-26T02:24:06.627Z,19.45
2018-05-26T02:26:04.574Z,19.50
2018-05-26T02:27:03.092Z,19.43
2018-05-26T02:28:59.024Z,19.38
2018-05-26T02:29:58.521Z,19.43
2018-05-26T02:31:55.481Z,19.38
2018-05-26T02:32:54.478Z,19.37
2018-05-26T02:34:48.978Z,19.45
2018-05-26T02:35:48.945Z,19.40
2018-05-26T02:37:44.886Z,19.40
2018-05-26T02:38:44.901Z,19.34
2018-05-26T02:40:41.375Z,19.40
2018-05-26T02:41:40.853Z,19.37
2018-05-26T02:43:34.335Z,19.35
2018-05-26T02:44:34.309Z,19.31
2018-05-26T02:46:30.291Z,19.31
2018-05-26T02:47:31.269Z,19.20
2018-05-26T02:49:24.727Z,19.25
2018-05-26T02:50:24.751Z,19.20
2018-05-26T02:52:19.694Z,19.16
2018-05-26T02:53:19.701Z,19.24
2018-05-26T02:55:15.153Z,19.23
2018-05-26T02:56:15.137Z,19.25
2018-05-26T02:58:11.590Z,19.17
2018-05-26T02:59:11.093Z,19.19
2018-05-26T03:01:05.574Z,19.17
2018-05-26T03:02:05.511Z,19.28
2018-05-26T03:04:02.397Z,19.23
2018-05-26T03:05:01.454Z,19.13
2018-05-26T03:06:57.404Z,19.19
2018-05-26T03:07:57.426Z,19.13
2018-05-26T03:09:53.365Z,19.20
2018-05-26T03:10:53.370Z,19.23
2018-05-26T03:12:47.343Z,19.15
2018-05-26T03:13:46.829Z,19.20
2018-05-26T03:15:42.787Z,19.27
2018-05-26T03:16:42.755Z,19.19
2018-05-26T03:18:37.245Z,19.20
2018-05-26T03:19:37.216Z,19.23
2018-05-26T03:21:33.668Z,19.12
2018-05-26T03:22:33.128Z,19.12
2018-05-26T03:24:28.590Z,19.16
2018-05-26T03:25:29.603Z,19.17
2018-05-26T03:27:22.058Z,19.09
2018-05-26T03:28:22.571Z,19.09
2018-05-26T03:30:19.006Z,19.13
2018-05-26T03:31:17.990Z,19.15
2018-05-26T03:33:12.479Z,19.17
2018-05-26T03:34:12.445Z,19.16
2018-05-26T03:36:08.419Z,19.23
2018-05-26T03:37:08.406Z,19.19
2018-05-26T03:39:04.339Z,19.19
2018-05-26T03:40:04.360Z,19.20
2018-05-26T03:42:00.802Z,19.17
2018-05-26T03:43:00.312Z,19.17
2018-05-26T03:44:56.767Z,19.15
2018-05-26T03:45:56.270Z,19.13
2018-05-26T03:47:50.658Z,19.12
2018-05-26T03:48:49.714Z,19.13
2018-05-26T03:50:47.607Z,19.15
2018-05-26T03:51:46.678Z,19.09
2018-05-26T03:53:43.095Z,19.13
2018-05-26T03:54:41.685Z,19.05
2018-05-26T03:56:37.651Z,19.13
2018-05-26T03:57:37.629Z,19.07
2018-05-26T03:59:32.117Z,19.09
2018-05-26T04:00:32.116Z,19.05
2018-05-26T04:02:28.107Z,19.10
2018-05-26T04:03:28.073Z,19.06
2018-05-26T04:05:25.529Z,19.02
2018-05-26T04:06:24.523Z,18.96
2018-05-26T04:08:19.996Z,18.93
2018-05-26T04:09:20.468Z,18.94
2018-05-26T04:11:15.904Z,18.75
2018-05-26T04:12:15.899Z,18.76
2018-05-26T04:14:14.363Z,18.74
2018-05-26T04:15:14.046Z,18.61
2018-05-26T04:17:09.528Z,18.59
2018-05-26T04:18:09.007Z,18.63
2018-05-26T04:20:04.949Z,18.75
2018-05-26T04:21:04.425Z,18.74
2018-05-26T04:22:58.907Z,18.74
2018-05-26T04:23:58.903Z,18.76
2018-05-26T04:25:54.832Z,18.75
2018-05-26T04:26:54.838Z,18.76
2018-05-26T04:28:51.310Z,18.75
2018-05-26T04:29:51.726Z,18.78
2018-05-26T04:31:47.267Z,18.82
2018-05-26T04:32:46.733Z,18.82
2018-05-26T04:34:42.702Z,18.99
2018-05-26T04:35:43.207Z,19.05
2018-05-26T04:37:38.628Z,19.09
2018-05-26T04:38:38.641Z,19.10
2018-05-26T04:40:36.091Z,19.25
2018-05-26T04:41:36.091Z,19.37
2018-05-26T04:43:30.571Z,19.86
2018-05-26T04:44:30.546Z,19.97
2018-05-26T04:46:26.480Z,20.22
2018-05-26T04:47:26.497Z,20.32
2018-05-26T04:49:22.490Z,20.57
2018-05-26T04:50:22.473Z,20.71
2018-05-26T04:52:19.936Z,20.98
2018-05-26T04:53:19.401Z,21.18
2018-05-26T04:55:14.369Z,21.46
2018-05-26T04:56:14.355Z,21.38
2018-05-26T04:58:10.302Z,21.55
2018-05-26T04:59:10.820Z,21.68
2018-05-26T05:01:04.778Z,21.71
2018-05-26T05:02:05.263Z,21.70
2018-05-26T05:04:03.201Z,21.96
2018-05-26T05:05:00.723Z,22.08
2018-05-26T05:06:55.164Z,22.29
2018-05-26T05:07:55.166Z,22.48
2018-05-26T05:09:51.154Z,22.59
2018-05-26T05:10:51.133Z,22.64
2018-05-26T05:12:47.065Z,22.73
2018-05-26T05:13:47.067Z,22.59
2018-05-26T05:15:43.555Z,22.59
2018-05-26T05:16:43.524Z,22.52
2018-05-26T05:18:39.487Z,22.69
2018-05-26T05:19:38.992Z,22.73
2018-05-26T05:21:37.966Z,22.64
2018-05-26T05:22:36.911Z,22.64
2018-05-26T05:24:34.392Z,22.75
2018-05-26T05:25:32.865Z,22.81
2018-05-26T05:27:29.351Z,23.04
2018-05-26T05:28:29.835Z,23.04
2018-05-26T05:30:24.831Z,23.26
2018-05-26T05:31:24.819Z,23.22
2018-05-26T05:33:20.783Z,23.21
2018-05-26T05:34:20.760Z,23.26
2018-05-26T05:36:17.717Z,23.37
2018-05-26T05:37:18.217Z,23.24
2018-05-26T05:39:14.671Z,23.24
2018-05-26T05:40:12.694Z,23.34
2018-05-26T05:42:07.649Z,23.26
2018-05-26T05:43:08.076Z,23.12
2018-05-26T05:45:03.126Z,23.12
2018-05-26T05:46:03.133Z,22.96
2018-05-26T05:47:57.611Z,22.99
2018-05-26T05:48:57.598Z,23.04
2018-05-26T05:50:53.561Z,23.06
2018-05-26T05:51:53.548Z,23.00
2018-05-26T05:53:49.535Z,23.04
2018-05-26T05:54:49.518Z,23.16
2018-05-26T05:56:45.989Z,23.24
2018-05-26T05:57:45.481Z,23.24
2018-05-26T05:59:41.479Z,23.26
2018-05-26T06:00:41.471Z,23.09
2018-05-26T06:02:35.930Z,22.76
2018-05-26T06:03:35.918Z,22.75
2018-05-26T06:05:31.907Z,22.61
2018-05-26T06:06:31.886Z,22.64
2018-05-26T06:08:26.373Z,22.61
2018-05-26T06:09:26.355Z,22.67
2018-05-26T06:11:21.319Z,22.63
2018-05-26T06:12:20.787Z,22.67
2018-05-26T06:14:17.750Z,22.71
2018-05-26T06:15:16.767Z,22.57
2018-05-26T06:17:12.743Z,22.64
2018-05-26T06:18:13.651Z,22.70
2018-05-26T06:20:06.176Z,22.82
2018-05-26T06:21:06.695Z,22.88
2018-05-26T06:23:02.176Z,23.01
2018-05-26T06:24:02.175Z,23.06
2018-05-26T06:25:58.140Z,22.82
2018-05-26T06:26:59.055Z,22.86
2018-05-26T06:28:54.114Z,23.00
2018-05-26T06:29:54.089Z,23.04
2018-05-26T06:31:50.595Z,23.01
2018-05-26T06:32:50.028Z,22.91
2018-05-26T06:34:46.005Z,22.89
2018-05-26T06:35:45.990Z,22.88
2018-05-26T06:37:40.446Z,22.76
2018-05-26T06:38:40.450Z,22.63
2018-05-26T06:40:34.923Z,22.70
2018-05-26T06:41:35.920Z,22.84
2018-05-26T06:43:30.392Z,22.96
2018-05-26T06:44:29.391Z,22.94
2018-05-26T06:46:25.356Z,23.00
2018-05-26T06:47:25.341Z,23.04
2018-05-26T06:49:21.286Z,23.03
2018-05-26T06:50:21.301Z,23.09
2018-05-26T06:52:17.240Z,23.03
2018-05-26T06:53:17.766Z,23.06
2018-05-26T06:55:10.691Z,23.26
2018-05-26T06:56:10.717Z,23.18
2018-05-26T06:58:07.666Z,23.35
2018-05-26T06:59:06.726Z,23.37
2018-05-26T07:01:00.686Z,23.40
2018-05-26T07:02:00.146Z,23.35
2018-05-26T07:03:56.626Z,23.26
2018-05-26T07:04:56.114Z,23.38
2018-05-26T07:06:49.573Z,23.53
2018-05-26T07:07:50.079Z,23.64
2018-05-26T07:09:44.074Z,23.41
2018-05-26T07:10:44.052Z,23.32
2018-05-26T07:12:44.005Z,23.38
2018-05-26T07:13:40.048Z,23.37
2018-05-26T07:15:36.504Z,23.38
2018-05-26T07:16:35.987Z,23.42
2018-05-26T07:18:34.133Z,23.57
2018-05-26T07:19:34.152Z,23.56
2018-05-26T07:21:30.037Z,23.87
2018-05-26T07:22:30.621Z,23.75
2018-05-26T07:24:25.546Z,23.81
2018-05-26T07:25:24.531Z,23.84
2018-05-26T07:27:18.984Z,23.89
2018-05-26T07:28:18.988Z,23.87
2018-05-26T07:30:15.454Z,23.96
2018-05-26T07:31:14.955Z,24.07
2018-05-26T07:33:10.940Z,24.24
2018-05-26T07:34:10.927Z,24.24
2018-05-26T07:36:05.408Z,24.30
2018-05-26T07:37:05.380Z,24.27
2018-05-26T07:39:01.352Z,24.27
2018-05-26T07:40:01.353Z,24.44
2018-05-26T07:41:56.309Z,24.61
2018-05-26T07:42:55.847Z,24.74
2018-05-26T07:44:52.290Z,24.83
2018-05-26T07:47:09.452Z,24.87
2018-05-26T07:48:08.278Z,24.94
2018-05-26T07:50:07.294Z,24.82
2018-05-26T07:51:05.886Z,24.61
2018-05-26T07:53:04.881Z,24.56
2018-05-26T07:54:04.172Z,24.55
2018-05-26T07:56:04.527Z,24.54
2018-05-26T07:57:04.557Z,24.67
2018-05-26T07:59:05.464Z,24.77
2018-05-26T08:00:05.986Z,24.83
2018-05-26T08:02:05.417Z,24.92
2018-05-26T08:03:05.421Z,24.78
2018-05-26T08:05:06.411Z,24.64
2018-05-26T08:06:06.373Z,24.78
2018-05-26T08:08:04.367Z,24.78
2018-05-26T08:09:03.828Z,24.93
2018-05-26T08:11:03.346Z,25.15
2018-05-26T08:12:01.960Z,25.26
2018-05-26T08:14:00.923Z,25.44
2018-05-26T08:15:00.920Z,25.69
2018-05-26T08:16:56.072Z,25.66
2018-05-26T08:17:56.141Z,25.60
2018-05-26T08:19:54.072Z,25.78
2018-05-26T08:20:54.528Z,25.85
2018-05-26T08:22:53.514Z,25.91
2018-05-26T08:23:53.482Z,26.04
2018-05-26T08:25:51.508Z,26.15
2018-05-26T08:26:50.885Z,26.15
2018-05-26T08:28:50.958Z,26.19
2018-05-26T08:29:52.337Z,26.24
2018-05-26T08:31:52.918Z,26.35
2018-05-26T08:32:51.018Z,26.31
2018-05-26T08:34:52.944Z,26.42
2018-05-26T08:35:52.423Z,26.50
2018-05-26T08:37:52.938Z,26.53
2018-05-26T08:38:53.890Z,26.60
2018-05-26T08:40:53.967Z,26.71
2018-05-26T08:41:53.505Z,26.59
2018-05-26T08:43:55.745Z,26.72
2018-05-26T08:44:54.815Z,26.93
2018-05-26T08:47:03.414Z,26.75
2018-05-26T08:49:21.478Z,26.87
2018-05-26T08:50:21.143Z,26.81
2018-05-26T08:52:19.267Z,26.84
2018-05-26T08:53:20.088Z,26.97
2018-05-26T08:55:16.303Z,27.12
2018-05-26T08:56:16.244Z,27.09
2018-05-26T08:58:14.254Z,27.18
2018-05-26T08:59:13.246Z,27.28
2018-05-26T09:01:13.635Z,27.28
2018-05-26T09:02:14.206Z,27.24
2018-05-26T09:04:11.732Z,27.21
2018-05-26T09:05:11.712Z,27.26
2018-05-26T09:07:08.619Z,27.19
2018-05-26T09:08:08.647Z,27.23
2018-05-26T09:10:05.740Z,27.19
2018-05-26T09:11:05.737Z,27.00
2018-05-26T09:13:01.723Z,27.00
2018-05-26T09:14:02.727Z,26.99
2018-05-26T09:16:02.275Z,27.08
2018-05-26T09:17:03.283Z,27.16
2018-05-26T09:19:02.717Z,27.04
2018-05-26T09:20:02.873Z,27.06
2018-05-26T09:22:03.161Z,27.26
2018-05-26T09:23:03.186Z,27.27
2018-05-26T09:25:01.191Z,27.51
2018-05-26T09:26:01.105Z,27.48
2018-05-26T09:28:01.628Z,27.64
2018-05-26T09:28:59.087Z,27.66
2018-05-26T09:31:02.033Z,27.75
2018-05-26T09:32:00.945Z,27.81
2018-05-26T09:33:57.095Z,27.83
2018-05-26T09:34:57.474Z,27.94
2018-05-26T09:36:57.957Z,27.90
2018-05-26T09:37:57.135Z,27.87
2018-05-26T09:39:58.163Z,27.93
2018-05-26T09:40:58.124Z,27.81
2018-05-26T09:42:56.601Z,27.79
2018-05-26T09:43:55.766Z,27.76
2018-05-26T09:45:53.915Z,27.71
2018-05-26T09:46:55.834Z,27.74
2018-05-26T09:48:55.864Z,27.91
2018-05-26T09:49:55.224Z,27.94
2018-05-26T09:51:57.182Z,27.96
2018-05-26T09:52:55.746Z,28.03
2018-05-26T09:54:55.213Z,28.12
2018-05-26T09:55:55.697Z,28.11
2018-05-26T09:57:52.633Z,28.24
2018-05-26T09:58:52.647Z,28.27
2018-05-26T10:00:53.898Z,28.28
2018-05-26T10:01:53.928Z,28.24
2018-05-26T10:03:57.249Z,28.20
2018-05-26T10:04:55.402Z,28.28
2018-05-26T10:06:50.375Z,28.09
2018-05-26T10:07:50.376Z,28.09
2018-05-26T10:09:54.300Z,28.28
2018-05-26T10:10:54.292Z,28.35
2018-05-26T10:12:50.269Z,28.45
2018-05-26T10:13:50.326Z,28.54
2018-05-26T10:15:44.767Z,28.42
2018-05-26T10:16:46.181Z,28.46
2018-05-26T10:18:42.645Z,28.45
2018-05-26T10:19:40.717Z,28.46
2018-05-26T10:21:37.616Z,28.24
2018-05-26T10:22:37.186Z,28.33
2018-05-26T10:24:33.144Z,28.17
2018-05-26T10:25:32.626Z,27.93
2018-05-26T10:27:28.609Z,27.93
2018-05-26T10:28:28.628Z,28.01
2018-05-26T10:30:25.089Z,28.23
2018-05-26T10:31:24.594Z,28.27
2018-05-26T10:33:20.530Z,28.26
2018-05-26T10:34:21.078Z,28.45
2018-05-26T10:36:17.512Z,28.48
2018-05-26T10:37:16.528Z,28.46
2018-05-26T10:39:12.489Z,28.53
2018-05-26T10:40:12.519Z,28.67
2018-05-26T10:42:08.486Z,28.48
2018-05-26T10:43:09.489Z,28.42
2018-05-26T10:45:05.446Z,28.27
2018-05-26T10:46:04.477Z,28.28
2018-05-26T10:48:02.579Z,28.51
2018-05-26T10:49:02.588Z,28.67
2018-05-26T10:50:58.577Z,28.75
2018-05-26T10:52:00.057Z,28.65
2018-05-26T10:53:54.466Z,28.38
2018-05-26T10:54:54.493Z,28.26
2018-05-26T10:56:52.488Z,28.33
2018-05-26T10:57:53.458Z,28.43
2018-05-26T10:59:49.425Z,28.70
2018-05-26T11:00:48.437Z,28.78
2018-05-26T11:02:46.891Z,28.73
2018-05-26T11:03:44.393Z,28.72
2018-05-26T11:05:41.359Z,28.60
2018-05-26T11:06:40.420Z,28.64
2018-05-26T11:08:36.880Z,28.70
2018-05-26T11:09:36.379Z,28.78
2018-05-26T11:11:32.344Z,28.82
2018-05-26T11:12:32.299Z,28.91
2018-05-26T11:14:30.421Z,28.82
2018-05-26T11:15:30.431Z,28.92
2018-05-26T11:17:26.425Z,29.03
2018-05-26T11:18:27.335Z,29.02
2018-05-26T11:20:22.448Z,28.83
2018-05-26T11:21:22.377Z,28.82
2018-05-26T11:23:18.391Z,28.75
2018-05-26T11:24:18.387Z,28.76
2018-05-26T11:26:15.871Z,28.92
2018-05-26T11:27:15.251Z,28.86
2018-05-26T11:29:10.311Z,28.78
2018-05-26T11:30:10.282Z,28.67
2018-05-26T11:32:06.279Z,28.54
2018-05-26T11:33:06.275Z,28.51
2018-05-26T11:35:02.271Z,28.79
2018-05-26T11:36:03.247Z,28.90
2018-05-26T11:37:58.738Z,29.02
2018-05-26T11:38:58.239Z,29.05
2018-05-26T11:40:54.157Z,29.06
2018-05-26T11:41:54.176Z,28.98
2018-05-26T11:43:53.690Z,29.06
2018-05-26T11:46:47.141Z,29.32
2018-05-26T11:47:47.135Z,29.36
2018-05-26T11:49:43.110Z,29.20
2018-05-26T11:50:43.113Z,29.10
2018-05-26T11:52:41.107Z,29.36
2018-05-26T11:53:41.097Z,29.26
2018-05-26T11:55:37.076Z,29.23
2018-05-26T11:56:37.101Z,29.30
2018-05-26T11:58:33.551Z,29.55
2018-05-26T11:59:33.060Z,29.63
2018-05-26T12:01:29.536Z,29.65
2018-05-26T12:02:29.538Z,29.54
2018-05-26T12:04:24.981Z,29.40
2018-05-26T12:05:26.018Z,29.32
2018-05-26T12:07:19.955Z,29.28
2018-05-26T12:08:20.381Z,29.29
2018-05-26T12:10:16.930Z,29.08
2018-05-26T12:11:16.413Z,29.11
2018-05-26T12:13:12.931Z,29.38
2018-05-26T12:14:11.407Z,29.51
2018-05-26T12:16:07.364Z,29.65
2018-05-26T12:17:07.865Z,29.73
2018-05-26T12:19:03.845Z,29.81
2018-05-26T12:20:03.356Z,29.87
2018-05-26T12:21:59.312Z,29.87
2018-05-26T12:22:59.306Z,29.88
2018-05-26T12:24:55.263Z,29.88
2018-05-26T12:25:55.804Z,29.89
2018-05-26T12:27:52.234Z,29.84
2018-05-26T12:28:51.270Z,29.98
2018-05-26T12:30:47.264Z,30.00
2018-05-26T12:31:47.198Z,30.04
2018-05-26T12:33:42.196Z,30.10
2018-05-26T12:34:41.682Z,30.11
2018-05-26T12:36:38.626Z,30.07
2018-05-26T12:37:38.648Z,30.00
2018-05-26T12:39:36.149Z,29.97
2018-05-26T12:40:34.647Z,30.10
2018-05-26T12:42:30.624Z,30.16
2018-05-26T12:43:30.607Z,30.10
2018-05-26T12:45:27.092Z,30.14
2018-05-26T12:46:27.580Z,30.24
2018-05-26T12:48:23.491Z,30.16
2018-05-26T12:49:22.557Z,30.10
2018-05-26T12:51:18.503Z,30.28
2018-05-26T12:52:18.574Z,30.06
2018-05-26T12:54:14.523Z,30.02
2018-05-26T12:55:15.479Z,30.04
2018-05-26T12:57:13.957Z,30.13
2018-05-26T12:58:12.444Z,30.02
2018-05-26T13:00:08.430Z,29.98
2018-05-26T13:01:08.453Z,30.03
2018-05-26T13:03:06.394Z,30.03
2018-05-26T13:04:06.907Z,30.07
2018-05-26T13:06:02.383Z,30.13
2018-05-26T13:07:02.366Z,30.03
2018-05-26T13:09:01.824Z,30.11
2018-05-26T13:10:00.520Z,30.13
2018-05-26T13:11:57.498Z,30.28
2018-05-26T13:12:56.498Z,30.34
2018-05-26T13:14:53.399Z,30.37
2018-05-26T13:15:52.471Z,30.32
2018-05-26T13:17:48.412Z,30.48
2018-05-26T13:18:49.425Z,30.49
2018-05-26T13:20:45.409Z,30.51
2018-05-26T13:21:44.423Z,30.45
2018-05-26T13:23:41.887Z,30.56
2018-05-26T13:24:40.913Z,30.63
2018-05-26T13:26:37.886Z,30.77
2018-05-26T13:27:37.359Z,30.75
2018-05-26T13:29:32.839Z,30.82
2018-05-26T13:30:32.336Z,30.86
2018-05-26T13:32:28.331Z,30.81
2018-05-26T13:33:28.314Z,30.85
2018-05-26T13:35:24.291Z,30.71
2018-05-26T13:36:24.296Z,30.71
2018-05-26T13:38:20.749Z,30.40
2018-05-26T13:39:20.272Z,30.37
2018-05-26T13:41:18.767Z,30.34
2018-05-26T13:42:16.232Z,30.32
2018-05-26T13:44:13.210Z,30.31
2018-05-26T13:45:13.201Z,30.47
2018-05-26T13:47:09.179Z,30.73
2018-05-26T13:48:09.167Z,30.73
2018-05-26T13:50:04.176Z,30.70
2018-05-26T13:51:05.091Z,30.67
2018-05-26T13:53:00.202Z,30.82
2018-05-26T13:54:00.265Z,30.88
2018-05-26T13:55:56.116Z,30.82
2018-05-26T13:56:56.145Z,30.85
2018-05-26T13:58:52.608Z,30.81
2018-05-26T13:59:52.096Z,30.82
2018-05-26T14:01:51.077Z,30.88
2018-05-26T14:02:50.050Z,30.88
2018-05-26T14:04:46.513Z,30.85
2018-05-26T14:05:46.014Z,30.79
2018-05-26T14:07:43.991Z,30.81
2018-05-26T14:08:42.906Z,30.70
2018-05-26T14:10:38.897Z,30.67
2018-05-26T14:11:37.970Z,30.79
2018-05-26T14:13:33.961Z,30.71
2018-05-26T14:14:33.946Z,30.75
2018-05-26T14:16:30.417Z,30.78
2018-05-26T14:17:29.931Z,30.75
2018-05-26T14:19:25.905Z,30.84
2018-05-26T14:20:25.960Z,30.93
2018-05-26T14:22:22.384Z,30.89
2018-05-26T14:23:21.891Z,30.96
2018-05-26T14:25:18.869Z,30.79
2018-05-26T14:26:17.886Z,30.84
2018-05-26T14:28:14.395Z,30.86
2018-05-26T14:29:13.857Z,30.81
2018-05-26T14:31:09.789Z,30.84
2018-05-26T14:32:09.798Z,30.71
2018-05-26T14:34:05.814Z,30.57
2018-05-26T14:35:06.700Z,30.51
2018-05-26T14:37:02.757Z,30.45
2018-05-26T14:38:01.801Z,30.49
2018-05-26T14:40:04.783Z,30.59
2018-05-26T14:40:57.778Z,30.56
2018-05-26T14:42:55.727Z,30.70
2018-05-26T14:43:55.745Z,30.64
2018-05-26T14:45:54.217Z,30.69
2018-05-26T14:46:55.141Z,30.67
2018-05-26T14:48:49.687Z,30.69
2018-05-26T14:49:49.702Z,30.71
2018-05-26T14:51:45.600Z,30.86
2018-05-26T14:52:46.160Z,30.85
2018-05-26T14:54:42.095Z,30.78
2018-05-26T14:55:41.593Z,30.79
2018-05-26T14:57:35.081Z,30.86
2018-05-26T14:58:36.986Z,30.96
2018-05-26T15:00:31.535Z,30.97
2018-05-26T15:01:31.547Z,30.89
2018-05-26T15:03:26.998Z,30.93
2018-05-26T15:04:28.003Z,30.96
2018-05-26T15:06:23.986Z,31.04
2018-05-26T15:07:24.016Z,31.12
2018-05-26T15:09:19.969Z,31.15
2018-05-26T15:10:18.975Z,31.16
2018-05-26T15:12:15.463Z,31.21
2018-05-26T15:13:15.532Z,31.25
2018-05-26T15:15:13.481Z,31.21
2018-05-26T15:16:14.945Z,31.23
2018-05-26T15:18:10.075Z,31.22
2018-05-26T15:19:10.074Z,31.22
2018-05-26T15:21:05.022Z,31.25
2018-05-26T15:22:05.026Z,31.22
2018-05-26T15:24:01.010Z,31.10
2018-05-26T15:25:00.998Z,31.04
2018-05-26T15:26:57.061Z,31.01
2018-05-26T15:27:57.498Z,30.97
2018-05-26T15:29:52.962Z,30.93
2018-05-26T15:30:53.485Z,31.06
2018-05-26T15:32:48.931Z,31.03
2018-05-26T15:33:48.926Z,31.08
2018-05-26T15:35:54.429Z,31.01
2018-05-26T15:38:01.936Z,31.08
2018-05-26T15:40:17.896Z,31.08
2018-05-26T15:41:16.880Z,31.06
2018-05-26T15:43:12.351Z,31.03
2018-05-26T15:44:12.382Z,30.99
2018-05-26T15:46:08.353Z,30.71
2018-05-26T15:47:09.360Z,30.82
2018-05-26T15:49:05.250Z,30.86
2018-05-26T15:50:04.826Z,30.84
2018-05-26T15:52:00.810Z,30.81
2018-05-26T15:53:00.305Z,30.85
2018-05-26T15:54:56.278Z,30.81
2018-05-26T15:55:56.269Z,30.84
2018-05-26T15:57:54.248Z,30.93
2018-05-26T15:58:50.765Z,30.93
2018-05-26T16:00:47.228Z,30.81
2018-05-26T16:01:46.715Z,30.82
2018-05-26T16:03:42.680Z,30.85
2018-05-26T16:04:43.681Z,30.88
2018-05-26T16:06:40.183Z,30.89
2018-05-26T16:07:38.667Z,30.82
2018-05-26T16:09:34.608Z,30.85
2018-05-26T16:10:35.144Z,30.89
2018-05-26T16:12:31.612Z,31.06
2018-05-26T16:13:32.091Z,31.01
2018-05-26T16:15:27.577Z,30.94
2018-05-26T16:16:27.595Z,30.96
2018-05-26T16:18:24.055Z,30.84
2018-05-26T16:19:24.057Z,30.85
2018-05-26T16:21:19.473Z,30.70
2018-05-26T16:22:19.493Z,30.67
2018-05-26T16:24:15.475Z,30.67
2018-05-26T16:25:15.473Z,30.62
2018-05-26T16:27:12.985Z,30.59
2018-05-26T16:28:12.445Z,30.49
2018-05-26T16:30:10.448Z,30.49
2018-05-26T16:31:09.426Z,30.54
2018-05-26T16:33:07.376Z,30.57
2018-05-26T16:34:09.083Z,30.57
2018-05-26T16:36:03.863Z,30.66
2018-05-26T16:37:03.374Z,30.67
2018-05-26T16:38:59.344Z,30.64
2018-05-26T16:39:59.342Z,30.75
2018-05-26T16:41:57.843Z,30.79
2018-05-26T16:42:58.316Z,30.82
2018-05-26T16:44:55.467Z,30.97
2018-05-26T16:45:57.484Z,31.12
2018-05-26T16:47:52.445Z,31.33
2018-05-26T16:48:51.454Z,31.68
2018-05-26T16:50:47.927Z,31.88
2018-05-26T16:51:48.930Z,31.80
2018-05-26T16:53:44.886Z,31.34
2018-05-26T16:54:43.385Z,31.23
2018-05-26T16:56:39.880Z,31.06
2018-05-26T16:57:39.348Z,31.01
2018-05-26T16:59:36.314Z,30.77
2018-05-26T17:00:35.341Z,30.86
2018-05-26T17:02:31.837Z,30.59
2018-05-26T17:03:31.321Z,30.54
2018-05-26T17:05:28.816Z,30.42
2018-05-26T17:06:27.793Z,30.51
2018-05-26T17:08:24.264Z,30.45
2018-05-26T17:09:24.206Z,30.47
2018-05-26T17:11:19.252Z,30.37
2018-05-26T17:12:19.733Z,30.47
2018-05-26T17:14:14.166Z,30.35
2018-05-26T17:15:13.679Z,30.39
2018-05-26T17:17:09.636Z,30.26
2018-05-26T17:18:10.637Z,30.24
2018-05-26T17:20:08.631Z,30.14
2018-05-26T17:21:07.628Z,30.11
2018-05-26T17:23:02.083Z,30.14
2018-05-26T17:24:03.083Z,30.14
2018-05-26T17:25:58.577Z,30.11
2018-05-26T17:26:58.573Z,30.19
2018-05-26T17:28:54.068Z,30.07
2018-05-26T17:29:54.064Z,30.10
2018-05-26T17:31:49.033Z,30.03
2018-05-26T17:32:47.484Z,29.98
2018-05-26T17:34:46.005Z,30.03
2018-05-26T17:35:45.462Z,29.94
2018-05-26T17:37:41.923Z,29.92
2018-05-26T17:38:41.433Z,29.87
2018-05-26T17:40:37.407Z,29.87
2018-05-26T17:41:37.405Z,29.79
2018-05-26T17:43:33.390Z,29.76
2018-05-26T17:44:33.376Z,29.75
2018-05-26T17:46:29.352Z,29.73
2018-05-26T17:47:29.359Z,29.66
2018-05-26T17:49:25.400Z,29.81
2018-05-26T17:50:25.334Z,29.70
2018-05-26T17:52:22.315Z,29.72
2018-05-26T17:53:21.311Z,29.65
2018-05-26T17:55:18.270Z,30.14
2018-05-26T17:56:17.271Z,30.37
2018-05-26T17:58:13.756Z,30.37
2018-05-26T17:59:13.747Z,30.26
2018-05-26T18:01:09.738Z,30.70
2018-05-26T18:02:09.177Z,31.12
2018-05-26T18:04:05.663Z,31.15
2018-05-26T18:05:05.146Z,30.75
2018-05-26T18:07:01.135Z,30.07
2018-05-26T18:08:01.147Z,29.85
2018-05-26T18:09:58.106Z,29.61
2018-05-26T18:10:57.108Z,29.40
2018-05-26T18:12:53.080Z,29.08
2018-05-26T18:13:53.086Z,29.06
2018-05-26T18:15:49.066Z,28.86
2018-05-26T18:16:49.581Z,28.85
2018-05-26T18:18:46.551Z,28.79
2018-05-26T18:19:46.003Z,28.72
2018-05-26T18:21:42.484Z,28.73
2018-05-26T18:22:40.949Z,28.67
2018-05-26T18:24:38.420Z,28.64
2018-05-26T18:25:37.926Z,28.61
2018-05-26T18:27:34.450Z,28.51
2018-05-26T18:28:32.901Z,28.51
2018-05-26T18:30:28.876Z,28.53
2018-05-26T18:31:28.866Z,28.49
2018-05-26T18:33:24.831Z,28.45
2018-05-26T18:34:25.836Z,28.46
2018-05-26T18:36:20.791Z,28.38
2018-05-26T18:37:21.814Z,28.39
2018-05-26T18:39:16.790Z,28.38
2018-05-26T18:40:16.781Z,28.42
2018-05-26T18:42:12.765Z,28.33
2018-05-26T18:43:12.735Z,28.28
2018-05-26T18:45:11.225Z,28.21
2018-05-26T18:46:10.722Z,28.28
2018-05-26T18:48:07.201Z,28.26
2018-05-26T18:49:07.675Z,28.18
2018-05-26T18:51:04.641Z,28.06
2018-05-26T18:52:04.638Z,28.05
2018-05-26T18:53:59.626Z,27.89
2018-05-26T18:55:00.098Z,27.98
2018-05-26T18:56:55.562Z,27.93
2018-05-26T18:57:55.062Z,27.81
2018-05-26T18:59:53.551Z,27.76